sensor_id;sensor_type;location;lat;lon;timestamp;P1;durP1;ratioP1;P2;durP2;ratioP2
72882;SDS011;61017;37.812;-122.286;2024-02-21T00:00:59;4.00;;;1.60;;
72882;SDS011;61017;37.812;-122.286;2024-02-21T00:02:30;4.47;;;1.58;;
72882;SDS011;61017;37.812;-122.286;2024-02-21T00:04:02;5.50;;;1.80;;
72882;SDS011;61017;37.812;-122.286;2024-02-21T00:05:33;6.32;;;1.77;;
72882;SDS011;61017;37.812;-122.286;2024-02-21T00:07:05;6.53;;;1.48;;
72882;SDS011;61017;37.812;-122.286;2024-02-21T00:08:36;5.43;;;1.77;;
72882;SDS011;61017;37.812;-122.286;2024-02-21T00:10:08;5.15;;;1.40;;
72882;SDS011;61017;37.812;-122.286;2024-02-21T00:11:39;6.50;;;1.52;;
72882;SDS011;61017;37.812;-122.286;2024-02-21T00:13:11;4.28;;;1.42;;
72882;SDS011;61017;37.812;-122.286;2024-02-21T00:14:42;3.97;;;1.30;;
72882;SDS011;61017;37.812;-122.286;2024-02-21T00:16:14;5.32;;;1.40;;
72882;SDS011;61017;37.812;-122.286;2024-02-21T00:17:45;5.28;;;1.55;;
72882;SDS011;61017;37.812;-122.286;2024-02-21T00:19:17;3.22;;;1.38;;
72882;SDS011;61017;37.812;-122.286;2024-02-21T00:20:48;4.80;;;1.48;;
72882;SDS011;61017;37.812;-122.286;2024-02-21T00:22:20;4.38;;;1.23;;
72882;SDS011;61017;37.812;-122.286;2024-02-21T00:23:51;4.32;;;1.60;;
72882;SDS011;61017;37.812;-122.286;2024-02-21T00:25:23;5.65;;;1.70;;
72882;SDS011;61017;37.812;-122.286;2024-02-21T00:26:54;4.15;;;1.30;;
72882;SDS011;61017;37.812;-122.286;2024-02-21T00:28:26;4.30;;;1.50;;
72882;SDS011;61017;37.812;-122.286;2024-02-21T00:29:57;3.53;;;1.50;;
72882;SDS011;61017;37.812;-122.286;2024-02-21T00:31:29;3.08;;;1.33;;
72882;SDS011;61017;37.812;-122.286;2024-02-21T00:33:00;3.70;;;1.55;;
72882;SDS011;61017;37.812;-122.286;2024-02-21T00:34:32;3.97;;;1.50;;
72882;SDS011;61017;37.812;-122.286;2024-02-21T00:36:03;4.78;;;1.50;;
72882;SDS011;61017;37.812;-122.286;2024-02-21T00:37:35;3.13;;;1.40;;
72882;SDS011;61017;37.812;-122.286;2024-02-21T00:39:06;4.90;;;1.50;;
72882;SDS011;61017;37.812;-122.286;2024-02-21T00:40:38;3.40;;;1.02;;
72882;SDS011;61017;37.812;-122.286;2024-02-21T00:42:09;4.38;;;1.27;;
72882;SDS011;61017;37.812;-122.286;2024-02-21T00:43:41;3.75;;;1.30;;
72882;SDS011;61017;37.812;-122.286;2024-02-21T00:45:13;4.45;;;1.27;;
72882;SDS011;61017;37.812;-122.286;2024-02-21T00:46:44;4.22;;;1.30;;
72882;SDS011;61017;37.812;-122.286;2024-02-21T00:48:16;3.88;;;1.48;;
72882;SDS011;61017;37.812;-122.286;2024-02-21T00:49:47;4.18;;;1.20;;
72882;SDS011;61017;37.812;-122.286;2024-02-21T00:51:19;6.70;;;1.40;;
72882;SDS011;61017;37.812;-122.286;2024-02-21T00:52:50;5.38;;;1.17;;
72882;SDS011;61017;37.812;-122.286;2024-02-21T00:54:22;9.60;;;1.58;;
72882;SDS011;61017;37.812;-122.286;2024-02-21T00:55:53;5.47;;;1.33;;
72882;SDS011;61017;37.812;-122.286;2024-02-21T00:57:25;5.55;;;1.50;;
72882;SDS011;61017;37.812;-122.286;2024-02-21T00:58:57;5.53;;;1.30;;
72882;SDS011;61017;37.812;-122.286;2024-02-21T01:00:28;8.93;;;1.38;;
72882;SDS011;61017;37.812;-122.286;2024-02-21T01:02:00;4.78;;;1.50;;
72882;SDS011;61017;37.812;-122.286;2024-02-21T01:03:31;4.90;;;1.20;;
72882;SDS011;61017;37.812;-122.286;2024-02-21T01:05:03;4.35;;;1.25;;
72882;SDS011;61017;37.812;-122.286;2024-02-21T01:06:35;3.83;;;1.02;;
72882;SDS011;61017;37.812;-122.286;2024-02-21T01:08:06;7.38;;;1.27;;
72882;SDS011;61017;37.812;-122.286;2024-02-21T01:09:38;4.15;;;1.00;;
72882;SDS011;61017;37.812;-122.286;2024-02-21T01:11:09;4.50;;;1.20;;
72882;SDS011;61017;37.812;-122.286;2024-02-21T01:12:41;4.80;;;1.17;;
72882;SDS011;61017;37.812;-122.286;2024-02-21T01:14:12;4.65;;;1.17;;
72882;SDS011;61017;37.812;-122.286;2024-02-21T01:15:44;4.07;;;1.20;;
72882;SDS011;61017;37.812;-122.286;2024-02-21T01:17:15;3.72;;;1.10;;
72882;SDS011;61017;37.812;-122.286;2024-02-21T01:18:47;7.97;;;1.38;;
72882;SDS011;61017;37.812;-122.286;2024-02-21T01:20:18;4.93;;;1.15;;
72882;SDS011;61017;37.812;-122.286;2024-02-21T01:21:50;3.40;;;1.00;;
72882;SDS011;61017;37.812;-122.286;2024-02-21T01:23:21;7.15;;;1.10;;
72882;SDS011;61017;37.812;-122.286;2024-02-21T01:24:53;4.32;;;1.00;;
72882;SDS011;61017;37.812;-122.286;2024-02-21T01:26:24;7.45;;;1.15;;
72882;SDS011;61017;37.812;-122.286;2024-02-21T01:27:56;3.75;;;1.25;;
72882;SDS011;61017;37.812;-122.286;2024-02-21T01:29:27;4.78;;;1.05;;
72882;SDS011;61017;37.812;-122.286;2024-02-21T01:30:59;4.18;;;1.10;;
72882;SDS011;61017;37.812;-122.286;2024-02-21T01:32:31;3.83;;;1.10;;
72882;SDS011;61017;37.812;-122.286;2024-02-21T01:34:02;6.38;;;1.10;;
72882;SDS011;61017;37.812;-122.286;2024-02-21T01:35:34;6.03;;;1.23;;
72882;SDS011;61017;37.812;-122.286;2024-02-21T01:37:06;3.75;;;1.00;;
72882;SDS011;61017;37.812;-122.286;2024-02-21T01:38:38;3.50;;;1.00;;
72882;SDS011;61017;37.812;-122.286;2024-02-21T01:40:09;5.18;;;1.20;;
72882;SDS011;61017;37.812;-122.286;2024-02-21T01:41:41;3.55;;;1.00;;
72882;SDS011;61017;37.812;-122.286;2024-02-21T01:43:16;2.85;;;1.10;;
72882;SDS011;61017;37.812;-122.286;2024-02-21T01:44:51;2.33;;;1.10;;
72882;SDS011;61017;37.812;-122.286;2024-02-21T01:46:23;6.30;;;0.90;;
72882;SDS011;61017;37.812;-122.286;2024-02-21T01:47:55;5.38;;;1.10;;
72882;SDS011;61017;37.812;-122.286;2024-02-21T01:49:26;2.78;;;0.95;;
72882;SDS011;61017;37.812;-122.286;2024-02-21T01:50:58;3.13;;;1.00;;
72882;SDS011;61017;37.812;-122.286;2024-02-21T01:52:30;4.25;;;1.70;;
72882;SDS011;61017;37.812;-122.286;2024-02-21T01:54:01;1.93;;;0.80;;
72882;SDS011;61017;37.812;-122.286;2024-02-21T01:55:33;2.78;;;1.10;;
72882;SDS011;61017;37.812;-122.286;2024-02-21T01:57:05;2.78;;;1.00;;
72882;SDS011;61017;37.812;-122.286;2024-02-21T01:58:37;2.83;;;1.15;;
72882;SDS011;61017;37.812;-122.286;2024-02-21T02:00:11;3.47;;;1.00;;
72882;SDS011;61017;37.812;-122.286;2024-02-21T02:01:46;2.72;;;1.00;;
72882;SDS011;61017;37.812;-122.286;2024-02-21T02:03:17;3.38;;;1.10;;
72882;SDS011;61017;37.812;-122.286;2024-02-21T02:04:49;2.85;;;0.90;;
72882;SDS011;61017;37.812;-122.286;2024-02-21T02:06:21;3.55;;;1.02;;
72882;SDS011;61017;37.812;-122.286;2024-02-21T02:07:53;3.25;;;1.10;;
72882;SDS011;61017;37.812;-122.286;2024-02-21T02:09:24;1.80;;;1.00;;
72882;SDS011;61017;37.812;-122.286;2024-02-21T02:10:56;2.10;;;0.90;;
72882;SDS011;61017;37.812;-122.286;2024-02-21T02:12:27;2.97;;;1.10;;
72882;SDS011;61017;37.812;-122.286;2024-02-21T02:13:59;2.67;;;0.90;;
72882;SDS011;61017;37.812;-122.286;2024-02-21T02:15:40;3.55;;;0.90;;
72882;SDS011;61017;37.812;-122.286;2024-02-21T02:17:12;1.45;;;0.77;;
72882;SDS011;61017;37.812;-122.286;2024-02-21T02:18:44;2.20;;;0.98;;
72882;SDS011;61017;37.812;-122.286;2024-02-21T02:20:15;2.58;;;0.90;;
72882;SDS011;61017;37.812;-122.286;2024-02-21T02:21:49;1.70;;;0.85;;
72882;SDS011;61017;37.812;-122.286;2024-02-21T02:23:31;2.47;;;0.82;;
72882;SDS011;61017;37.812;-122.286;2024-02-21T02:25:03;2.20;;;1.00;;
72882;SDS011;61017;37.812;-122.286;2024-02-21T02:26:35;2.10;;;0.80;;
72882;SDS011;61017;37.812;-122.286;2024-02-21T02:28:06;2.28;;;1.00;;
72882;SDS011;61017;37.812;-122.286;2024-02-21T02:29:38;2.85;;;1.02;;
72882;SDS011;61017;37.812;-122.286;2024-02-21T02:31:09;1.58;;;0.82;;
72882;SDS011;61017;37.812;-122.286;2024-02-21T02:32:44;1.98;;;0.75;;
72882;SDS011;61017;37.812;-122.286;2024-02-21T02:34:15;1.30;;;0.90;;
72882;SDS011;61017;37.812;-122.286;2024-02-21T02:35:47;2.00;;;0.88;;
72882;SDS011;61017;37.812;-122.286;2024-02-21T02:37:19;1.73;;;0.80;;
72882;SDS011;61017;37.812;-122.286;2024-02-21T02:38:50;2.17;;;0.90;;
72882;SDS011;61017;37.812;-122.286;2024-02-21T02:40:22;2.67;;;0.90;;
72882;SDS011;61017;37.812;-122.286;2024-02-21T02:41:53;1.83;;;0.90;;
72882;SDS011;61017;37.812;-122.286;2024-02-21T02:43:25;2.50;;;0.80;;
72882;SDS011;61017;37.812;-122.286;2024-02-21T02:44:56;1.60;;;0.82;;
72882;SDS011;61017;37.812;-122.286;2024-02-21T02:46:28;1.50;;;0.80;;
72882;SDS011;61017;37.812;-122.286;2024-02-21T02:47:59;2.22;;;0.82;;
72882;SDS011;61017;37.812;-122.286;2024-02-21T02:49:31;1.92;;;0.90;;
72882;SDS011;61017;37.812;-122.286;2024-02-21T02:51:02;1.85;;;0.80;;
72882;SDS011;61017;37.812;-122.286;2024-02-21T02:52:34;2.60;;;0.98;;
72882;SDS011;61017;37.812;-122.286;2024-02-21T02:54:05;2.03;;;0.90;;
72882;SDS011;61017;37.812;-122.286;2024-02-21T02:55:37;1.95;;;1.00;;
72882;SDS011;61017;37.812;-122.286;2024-02-21T02:57:08;2.47;;;1.00;;
72882;SDS011;61017;37.812;-122.286;2024-02-21T02:58:40;2.50;;;1.20;;
72882;SDS011;61017;37.812;-122.286;2024-02-21T03:00:32;2.13;;;1.00;;
72882;SDS011;61017;37.812;-122.286;2024-02-21T03:02:03;1.92;;;0.95;;
72882;SDS011;61017;37.812;-122.286;2024-02-21T03:03:35;4.13;;;1.20;;
72882;SDS011;61017;37.812;-122.286;2024-02-21T03:05:16;2.58;;;1.20;;
72882;SDS011;61017;37.812;-122.286;2024-02-21T03:06:48;2.05;;;1.13;;
72882;SDS011;61017;37.812;-122.286;2024-02-21T03:08:20;2.33;;;1.02;;
72882;SDS011;61017;37.812;-122.286;2024-02-21T03:09:51;2.50;;;0.90;;
72882;SDS011;61017;37.812;-122.286;2024-02-21T03:11:23;2.47;;;1.10;;
72882;SDS011;61017;37.812;-122.286;2024-02-21T03:12:54;2.13;;;1.08;;
72882;SDS011;61017;37.812;-122.286;2024-02-21T03:14:26;2.28;;;0.90;;
72882;SDS011;61017;37.812;-122.286;2024-02-21T03:15:57;1.85;;;0.90;;
72882;SDS011;61017;37.812;-122.286;2024-02-21T03:17:29;1.67;;;0.90;;
72882;SDS011;61017;37.812;-122.286;2024-02-21T03:19:00;2.67;;;1.10;;
72882;SDS011;61017;37.812;-122.286;2024-02-21T03:20:32;1.60;;;1.00;;
72882;SDS011;61017;37.812;-122.286;2024-02-21T03:22:03;2.00;;;0.98;;
72882;SDS011;61017;37.812;-122.286;2024-02-21T03:23:35;1.95;;;1.00;;
72882;SDS011;61017;37.812;-122.286;2024-02-21T03:25:07;1.60;;;0.90;;
72882;SDS011;61017;37.812;-122.286;2024-02-21T03:26:39;2.05;;;0.80;;
72882;SDS011;61017;37.812;-122.286;2024-02-21T03:28:11;1.60;;;0.90;;
72882;SDS011;61017;37.812;-122.286;2024-02-21T03:29:42;2.22;;;0.82;;
72882;SDS011;61017;37.812;-122.286;2024-02-21T03:31:14;1.90;;;0.88;;
72882;SDS011;61017;37.812;-122.286;2024-02-21T03:32:45;2.17;;;0.88;;
72882;SDS011;61017;37.812;-122.286;2024-02-21T03:34:17;1.20;;;0.70;;
72882;SDS011;61017;37.812;-122.286;2024-02-21T03:35:48;2.15;;;1.00;;
72882;SDS011;61017;37.812;-122.286;2024-02-21T03:37:20;1.73;;;0.80;;
72882;SDS011;61017;37.812;-122.286;2024-02-21T03:38:51;1.70;;;0.98;;
72882;SDS011;61017;37.812;-122.286;2024-02-21T03:40:24;1.52;;;0.93;;
72882;SDS011;61017;37.812;-122.286;2024-02-21T03:41:56;1.73;;;0.90;;
72882;SDS011;61017;37.812;-122.286;2024-02-21T03:43:27;2.13;;;0.90;;
72882;SDS011;61017;37.812;-122.286;2024-02-21T03:44:59;1.63;;;0.90;;
72882;SDS011;61017;37.812;-122.286;2024-02-21T03:46:30;2.28;;;0.93;;
72882;SDS011;61017;37.812;-122.286;2024-02-21T03:48:02;1.40;;;0.88;;
72882;SDS011;61017;37.812;-122.286;2024-02-21T03:49:34;2.45;;;1.00;;
72882;SDS011;61017;37.812;-122.286;2024-02-21T03:51:05;1.17;;;0.70;;
72882;SDS011;61017;37.812;-122.286;2024-02-21T03:52:37;1.83;;;0.80;;
72882;SDS011;61017;37.812;-122.286;2024-02-21T03:54:08;2.05;;;0.98;;
72882;SDS011;61017;37.812;-122.286;2024-02-21T03:55:40;2.45;;;0.90;;
72882;SDS011;61017;37.812;-122.286;2024-02-21T03:57:11;1.50;;;0.80;;
72882;SDS011;61017;37.812;-122.286;2024-02-21T03:58:43;2.20;;;1.00;;
72882;SDS011;61017;37.812;-122.286;2024-02-21T04:00:14;1.13;;;0.70;;
72882;SDS011;61017;37.812;-122.286;2024-02-21T04:01:46;1.42;;;0.90;;
72882;SDS011;61017;37.812;-122.286;2024-02-21T04:03:17;3.05;;;0.82;;
72882;SDS011;61017;37.812;-122.286;2024-02-21T04:04:49;1.98;;;1.08;;
72882;SDS011;61017;37.812;-122.286;2024-02-21T04:06:20;2.00;;;0.90;;
72882;SDS011;61017;37.812;-122.286;2024-02-21T04:07:52;2.85;;;0.93;;
72882;SDS011;61017;37.812;-122.286;2024-02-21T04:09:24;1.92;;;0.85;;
72882;SDS011;61017;37.812;-122.286;2024-02-21T04:10:55;2.13;;;0.90;;
72882;SDS011;61017;37.812;-122.286;2024-02-21T04:12:27;1.67;;;0.80;;
72882;SDS011;61017;37.812;-122.286;2024-02-21T04:13:58;1.80;;;0.80;;
72882;SDS011;61017;37.812;-122.286;2024-02-21T04:15:30;1.90;;;0.90;;
72882;SDS011;61017;37.812;-122.286;2024-02-21T04:17:01;1.92;;;0.90;;
72882;SDS011;61017;37.812;-122.286;2024-02-21T04:18:33;1.83;;;0.93;;
72882;SDS011;61017;37.812;-122.286;2024-02-21T04:20:05;1.85;;;0.90;;
72882;SDS011;61017;37.812;-122.286;2024-02-21T04:21:36;1.90;;;1.00;;
72882;SDS011;61017;37.812;-122.286;2024-02-21T04:23:08;2.17;;;0.90;;
72882;SDS011;61017;37.812;-122.286;2024-02-21T04:24:39;1.73;;;0.90;;
72882;SDS011;61017;37.812;-122.286;2024-02-21T04:26:11;2.10;;;0.95;;
72882;SDS011;61017;37.812;-122.286;2024-02-21T04:27:42;2.28;;;0.88;;
72882;SDS011;61017;37.812;-122.286;2024-02-21T04:29:14;2.33;;;1.00;;
72882;SDS011;61017;37.812;-122.286;2024-02-21T04:30:45;1.80;;;1.00;;
72882;SDS011;61017;37.812;-122.286;2024-02-21T04:32:17;4.22;;;1.10;;
72882;SDS011;61017;37.812;-122.286;2024-02-21T04:33:48;2.85;;;1.30;;
72882;SDS011;61017;37.812;-122.286;2024-02-21T04:35:20;2.75;;;1.27;;
72882;SDS011;61017;37.812;-122.286;2024-02-21T04:36:52;2.75;;;1.10;;
72882;SDS011;61017;37.812;-122.286;2024-02-21T04:38:23;2.33;;;1.10;;
72882;SDS011;61017;37.812;-122.286;2024-02-21T04:39:55;2.90;;;1.20;;
72882;SDS011;61017;37.812;-122.286;2024-02-21T04:41:26;2.78;;;1.17;;
72882;SDS011;61017;37.812;-122.286;2024-02-21T04:42:58;2.33;;;1.02;;
72882;SDS011;61017;37.812;-122.286;2024-02-21T04:44:29;2.72;;;1.10;;
72882;SDS011;61017;37.812;-122.286;2024-02-21T04:46:01;2.28;;;1.20;;
72882;SDS011;61017;37.812;-122.286;2024-02-21T04:47:32;2.22;;;1.00;;
72882;SDS011;61017;37.812;-122.286;2024-02-21T04:49:04;2.33;;;1.00;;
72882;SDS011;61017;37.812;-122.286;2024-02-21T04:50:35;2.45;;;1.20;;
72882;SDS011;61017;37.812;-122.286;2024-02-21T04:52:07;2.80;;;1.20;;
72882;SDS011;61017;37.812;-122.286;2024-02-21T04:53:38;2.30;;;1.27;;
72882;SDS011;61017;37.812;-122.286;2024-02-21T04:55:10;5.15;;;1.27;;
72882;SDS011;61017;37.812;-122.286;2024-02-21T04:56:41;3.15;;;1.10;;
72882;SDS011;61017;37.812;-122.286;2024-02-21T04:58:13;2.90;;;1.20;;
72882;SDS011;61017;37.812;-122.286;2024-02-21T04:59:44;2.72;;;1.30;;
72882;SDS011;61017;37.812;-122.286;2024-02-21T05:01:16;4.57;;;1.20;;
72882;SDS011;61017;37.812;-122.286;2024-02-21T05:02:48;2.00;;;1.10;;
72882;SDS011;61017;37.812;-122.286;2024-02-21T05:04:19;2.60;;;1.30;;
72882;SDS011;61017;37.812;-122.286;2024-02-21T05:05:51;2.58;;;1.30;;
72882;SDS011;61017;37.812;-122.286;2024-02-21T05:07:22;3.88;;;1.30;;
72882;SDS011;61017;37.812;-122.286;2024-02-21T05:08:54;3.00;;;1.40;;
72882;SDS011;61017;37.812;-122.286;2024-02-21T05:10:25;2.38;;;1.35;;
72882;SDS011;61017;37.812;-122.286;2024-02-21T05:11:57;2.40;;;1.40;;
72882;SDS011;61017;37.812;-122.286;2024-02-21T05:13:28;3.05;;;1.50;;
72882;SDS011;61017;37.812;-122.286;2024-02-21T05:15:00;3.55;;;1.40;;
72882;SDS011;61017;37.812;-122.286;2024-02-21T05:16:31;3.45;;;1.45;;
72882;SDS011;61017;37.812;-122.286;2024-02-21T05:18:03;2.63;;;1.27;;
72882;SDS011;61017;37.812;-122.286;2024-02-21T05:19:35;2.38;;;1.35;;
72882;SDS011;61017;37.812;-122.286;2024-02-21T05:21:06;2.60;;;1.48;;
72882;SDS011;61017;37.812;-122.286;2024-02-21T05:22:38;3.35;;;1.60;;
72882;SDS011;61017;37.812;-122.286;2024-02-21T05:24:09;3.42;;;1.45;;
72882;SDS011;61017;37.812;-122.286;2024-02-21T05:25:41;2.83;;;1.50;;
72882;SDS011;61017;37.812;-122.286;2024-02-21T05:27:12;3.05;;;1.60;;
72882;SDS011;61017;37.812;-122.286;2024-02-21T05:28:44;2.65;;;1.35;;
72882;SDS011;61017;37.812;-122.286;2024-02-21T05:30:15;2.50;;;1.55;;
72882;SDS011;61017;37.812;-122.286;2024-02-21T05:33:24;3.65;;;1.60;;
72882;SDS011;61017;37.812;-122.286;2024-02-21T05:34:56;3.30;;;1.90;;
72882;SDS011;61017;37.812;-122.286;2024-02-21T05:36:27;3.17;;;1.88;;
72882;SDS011;61017;37.812;-122.286;2024-02-21T05:37:59;4.40;;;1.80;;
72882;SDS011;61017;37.812;-122.286;2024-02-21T05:39:30;2.45;;;1.52;;
72882;SDS011;61017;37.812;-122.286;2024-02-21T05:41:02;3.05;;;1.85;;
72882;SDS011;61017;37.812;-122.286;2024-02-21T05:42:34;4.53;;;1.80;;
72882;SDS011;61017;37.812;-122.286;2024-02-21T05:44:05;3.00;;;1.70;;
72882;SDS011;61017;37.812;-122.286;2024-02-21T05:45:37;3.40;;;1.92;;
72882;SDS011;61017;37.812;-122.286;2024-02-21T05:47:08;2.58;;;1.60;;
72882;SDS011;61017;37.812;-122.286;2024-02-21T05:48:40;3.20;;;1.70;;
72882;SDS011;61017;37.812;-122.286;2024-02-21T05:50:11;3.42;;;1.70;;
72882;SDS011;61017;37.812;-122.286;2024-02-21T05:51:43;3.30;;;1.75;;
72882;SDS011;61017;37.812;-122.286;2024-02-21T05:53:14;3.55;;;1.63;;
72882;SDS011;61017;37.812;-122.286;2024-02-21T05:54:46;3.38;;;1.60;;
72882;SDS011;61017;37.812;-122.286;2024-02-21T05:56:17;4.22;;;1.90;;
72882;SDS011;61017;37.812;-122.286;2024-02-21T05:57:49;3.53;;;1.80;;
72882;SDS011;61017;37.812;-122.286;2024-02-21T05:59:23;4.10;;;1.90;;
72882;SDS011;61017;37.812;-122.286;2024-02-21T06:00:55;2.88;;;1.50;;
72882;SDS011;61017;37.812;-122.286;2024-02-21T06:02:27;4.18;;;1.90;;
72882;SDS011;61017;37.812;-122.286;2024-02-21T06:03:58;3.15;;;1.88;;
72882;SDS011;61017;37.812;-122.286;2024-02-21T06:05:30;4.30;;;1.77;;
72882;SDS011;61017;37.812;-122.286;2024-02-21T06:07:02;3.25;;;1.80;;
72882;SDS011;61017;37.812;-122.286;2024-02-21T06:08:33;4.45;;;1.80;;
72882;SDS011;61017;37.812;-122.286;2024-02-21T06:10:05;2.90;;;1.77;;
72882;SDS011;61017;37.812;-122.286;2024-02-21T06:11:37;3.50;;;1.90;;
72882;SDS011;61017;37.812;-122.286;2024-02-21T06:13:09;3.20;;;1.67;;
72882;SDS011;61017;37.812;-122.286;2024-02-21T06:14:40;3.95;;;2.17;;
72882;SDS011;61017;37.812;-122.286;2024-02-21T06:16:12;4.28;;;2.10;;
72882;SDS011;61017;37.812;-122.286;2024-02-21T06:17:43;4.35;;;2.05;;
72882;SDS011;61017;37.812;-122.286;2024-02-21T06:19:14;3.88;;;1.75;;
72882;SDS011;61017;37.812;-122.286;2024-02-21T06:20:46;3.03;;;1.67;;
72882;SDS011;61017;37.812;-122.286;2024-02-21T06:22:18;3.63;;;1.83;;
72882;SDS011;61017;37.812;-122.286;2024-02-21T06:23:49;3.35;;;2.00;;
72882;SDS011;61017;37.812;-122.286;2024-02-21T06:25:21;4.13;;;1.80;;
72882;SDS011;61017;37.812;-122.286;2024-02-21T06:26:52;3.88;;;1.90;;
72882;SDS011;61017;37.812;-122.286;2024-02-21T06:28:24;3.22;;;1.75;;
72882;SDS011;61017;37.812;-122.286;2024-02-21T06:29:55;3.10;;;1.80;;
72882;SDS011;61017;37.812;-122.286;2024-02-21T06:31:27;3.92;;;2.10;;
72882;SDS011;61017;37.812;-122.286;2024-02-21T06:32:59;3.67;;;1.90;;
72882;SDS011;61017;37.812;-122.286;2024-02-21T06:34:31;3.65;;;2.10;;
72882;SDS011;61017;37.812;-122.286;2024-02-21T06:36:03;3.30;;;1.90;;
72882;SDS011;61017;37.812;-122.286;2024-02-21T06:37:34;2.80;;;1.80;;
72882;SDS011;61017;37.812;-122.286;2024-02-21T06:39:06;3.92;;;2.22;;
72882;SDS011;61017;37.812;-122.286;2024-02-21T06:40:37;3.55;;;1.92;;
72882;SDS011;61017;37.812;-122.286;2024-02-21T06:42:09;3.53;;;1.83;;
72882;SDS011;61017;37.812;-122.286;2024-02-21T06:43:40;4.40;;;1.83;;
72882;SDS011;61017;37.812;-122.286;2024-02-21T06:45:12;4.57;;;2.30;;
72882;SDS011;61017;37.812;-122.286;2024-02-21T06:46:43;3.33;;;1.90;;
72882;SDS011;61017;37.812;-122.286;2024-02-21T06:48:15;2.95;;;2.00;;
72882;SDS011;61017;37.812;-122.286;2024-02-21T06:49:50;6.07;;;1.90;;
72882;SDS011;61017;37.812;-122.286;2024-02-21T06:51:22;4.38;;;1.90;;
72882;SDS011;61017;37.812;-122.286;2024-02-21T06:52:53;3.30;;;1.90;;
72882;SDS011;61017;37.812;-122.286;2024-02-21T06:54:25;3.15;;;1.60;;
72882;SDS011;61017;37.812;-122.286;2024-02-21T06:55:56;4.05;;;1.90;;
72882;SDS011;61017;37.812;-122.286;2024-02-21T06:57:31;2.97;;;1.70;;
72882;SDS011;61017;37.812;-122.286;2024-02-21T06:59:02;4.47;;;2.03;;
72882;SDS011;61017;37.812;-122.286;2024-02-21T07:00:34;3.42;;;1.83;;
72882;SDS011;61017;37.812;-122.286;2024-02-21T07:02:05;3.80;;;1.63;;
72882;SDS011;61017;37.812;-122.286;2024-02-21T07:03:37;3.78;;;1.80;;
72882;SDS011;61017;37.812;-122.286;2024-02-21T07:05:09;3.30;;;1.67;;
72882;SDS011;61017;37.812;-122.286;2024-02-21T07:06:40;2.72;;;1.83;;
72882;SDS011;61017;37.812;-122.286;2024-02-21T07:08:12;2.92;;;1.55;;
72882;SDS011;61017;37.812;-122.286;2024-02-21T07:09:43;3.75;;;1.85;;
72882;SDS011;61017;37.812;-122.286;2024-02-21T07:11:15;3.60;;;1.67;;
72882;SDS011;61017;37.812;-122.286;2024-02-21T07:12:46;2.78;;;1.55;;
72882;SDS011;61017;37.812;-122.286;2024-02-21T07:14:18;3.55;;;1.55;;
72882;SDS011;61017;37.812;-122.286;2024-02-21T07:15:49;3.55;;;1.73;;
72882;SDS011;61017;37.812;-122.286;2024-02-21T07:17:21;3.03;;;1.88;;
72882;SDS011;61017;37.812;-122.286;2024-02-21T07:18:52;2.80;;;1.67;;
72882;SDS011;61017;37.812;-122.286;2024-02-21T07:20:24;4.82;;;2.10;;
72882;SDS011;61017;37.812;-122.286;2024-02-21T07:21:55;3.15;;;1.70;;
72882;SDS011;61017;37.812;-122.286;2024-02-21T07:23:27;3.35;;;1.50;;
72882;SDS011;61017;37.812;-122.286;2024-02-21T07:24:58;3.22;;;1.75;;
72882;SDS011;61017;37.812;-122.286;2024-02-21T07:26:31;4.10;;;1.88;;
72882;SDS011;61017;37.812;-122.286;2024-02-21T07:28:02;3.05;;;1.80;;
72882;SDS011;61017;37.812;-122.286;2024-02-21T07:29:34;4.22;;;1.70;;
72882;SDS011;61017;37.812;-122.286;2024-02-21T07:31:05;5.60;;;1.77;;
72882;SDS011;61017;37.812;-122.286;2024-02-21T07:32:37;2.97;;;1.60;;
72882;SDS011;61017;37.812;-122.286;2024-02-21T07:34:08;4.00;;;2.05;;
72882;SDS011;61017;37.812;-122.286;2024-02-21T07:35:40;4.68;;;1.77;;
72882;SDS011;61017;37.812;-122.286;2024-02-21T07:37:11;4.53;;;1.67;;
72882;SDS011;61017;37.812;-122.286;2024-02-21T07:38:43;4.63;;;1.92;;
72882;SDS011;61017;37.812;-122.286;2024-02-21T07:40:15;3.65;;;1.98;;
72882;SDS011;61017;37.812;-122.286;2024-02-21T07:41:48;3.15;;;1.58;;
72882;SDS011;61017;37.812;-122.286;2024-02-21T07:43:19;3.28;;;1.80;;
72882;SDS011;61017;37.812;-122.286;2024-02-21T07:44:51;3.95;;;1.90;;
72882;SDS011;61017;37.812;-122.286;2024-02-21T07:46:22;2.85;;;1.70;;
72882;SDS011;61017;37.812;-122.286;2024-02-21T07:47:54;4.78;;;1.90;;
72882;SDS011;61017;37.812;-122.286;2024-02-21T07:49:25;4.28;;;2.10;;
72882;SDS011;61017;37.812;-122.286;2024-02-21T07:50:57;3.67;;;1.80;;
72882;SDS011;61017;37.812;-122.286;2024-02-21T07:52:28;3.63;;;1.90;;
72882;SDS011;61017;37.812;-122.286;2024-02-21T07:54:00;4.63;;;2.17;;
72882;SDS011;61017;37.812;-122.286;2024-02-21T07:55:31;3.83;;;1.85;;
72882;SDS011;61017;37.812;-122.286;2024-02-21T07:57:03;3.78;;;2.03;;
72882;SDS011;61017;37.812;-122.286;2024-02-21T07:58:34;3.53;;;1.92;;
72882;SDS011;61017;37.812;-122.286;2024-02-21T08:00:06;3.08;;;1.77;;
72882;SDS011;61017;37.812;-122.286;2024-02-21T08:01:38;3.97;;;2.10;;
72882;SDS011;61017;37.812;-122.286;2024-02-21T08:03:09;3.00;;;1.90;;
72882;SDS011;61017;37.812;-122.286;2024-02-21T08:04:41;3.97;;;1.90;;
72882;SDS011;61017;37.812;-122.286;2024-02-21T08:06:12;4.05;;;2.10;;
72882;SDS011;61017;37.812;-122.286;2024-02-21T08:07:44;4.32;;;2.10;;
72882;SDS011;61017;37.812;-122.286;2024-02-21T08:09:16;3.85;;;2.05;;
72882;SDS011;61017;37.812;-122.286;2024-02-21T08:10:48;2.90;;;2.00;;
72882;SDS011;61017;37.812;-122.286;2024-02-21T08:12:20;3.42;;;1.90;;
72882;SDS011;61017;37.812;-122.286;2024-02-21T08:13:51;3.70;;;1.83;;
72882;SDS011;61017;37.812;-122.286;2024-02-21T08:15:23;3.90;;;1.90;;
72882;SDS011;61017;37.812;-122.286;2024-02-21T08:16:54;5.75;;;2.10;;
72882;SDS011;61017;37.812;-122.286;2024-02-21T08:18:26;4.53;;;2.10;;
72882;SDS011;61017;37.812;-122.286;2024-02-21T08:19:57;3.88;;;2.03;;
72882;SDS011;61017;37.812;-122.286;2024-02-21T08:21:29;4.22;;;2.10;;
72882;SDS011;61017;37.812;-122.286;2024-02-21T08:23:01;4.20;;;1.98;;
72882;SDS011;61017;37.812;-122.286;2024-02-21T08:24:32;3.38;;;1.80;;
72882;SDS011;61017;37.812;-122.286;2024-02-21T08:26:04;4.47;;;2.10;;
72882;SDS011;61017;37.812;-122.286;2024-02-21T08:27:35;4.93;;;1.95;;
72882;SDS011;61017;37.812;-122.286;2024-02-21T08:30:39;3.22;;;1.92;;
72882;SDS011;61017;37.812;-122.286;2024-02-21T08:32:11;4.20;;;2.15;;
72882;SDS011;61017;37.812;-122.286;2024-02-21T08:33:42;4.03;;;1.92;;
72882;SDS011;61017;37.812;-122.286;2024-02-21T08:35:14;3.97;;;2.15;;
72882;SDS011;61017;37.812;-122.286;2024-02-21T08:36:46;5.43;;;2.20;;
72882;SDS011;61017;37.812;-122.286;2024-02-21T08:38:17;4.78;;;2.00;;
72882;SDS011;61017;37.812;-122.286;2024-02-21T08:39:49;5.50;;;2.40;;
72882;SDS011;61017;37.812;-122.286;2024-02-21T08:41:20;4.15;;;2.00;;
72882;SDS011;61017;37.812;-122.286;2024-02-21T08:42:52;3.73;;;2.30;;
72882;SDS011;61017;37.812;-122.286;2024-02-21T08:44:24;5.40;;;2.30;;
72882;SDS011;61017;37.812;-122.286;2024-02-21T08:45:56;4.28;;;2.60;;
72882;SDS011;61017;37.812;-122.286;2024-02-21T08:47:27;4.10;;;2.42;;
72882;SDS011;61017;37.812;-122.286;2024-02-21T08:48:59;5.93;;;2.38;;
72882;SDS011;61017;37.812;-122.286;2024-02-21T08:50:30;5.20;;;2.63;;
72882;SDS011;61017;37.812;-122.286;2024-02-21T08:52:02;4.30;;;2.55;;